Time;durP1;ratioP1;P1;durP2;ratioP2;P2;SDS_P1;SDS_P2;PMS_P1;PMS_P2;Temp;Humidity;BMP_temperature;BMP_pressure;BME280_temperature;BME280_humidity;BME280_pressure;Samples;Min_cycle;Max_cycle;Signal;HPM_P1;HPM_P2
2023/08/17 00:00:53;;;;;;;2.03;1.67;;;24.80;99.90;;;;;;5027456;28;20225;-88
2023/08/17 00:03:38;;;;;;;2.77;1.80;;;24.80;99.90;;;;;;5031018;28;20720;-88
2023/08/17 00:06:03;;;;;;;3.50;1.40;;;24.80;99.90;;;;;;5012683;28;20271;-88
2023/08/17 00:08:38;;;;;;;3.50;1.50;;;24.80;99.90;;;;;;4999385;28;20300;-88
2023/08/17 00:11:15;;;;;;;1.97;1.67;;;24.80;99.90;;;;;;4989622;28;20198;-88
2023/08/17 00:13:43;;;;;;;2.37;1.87;;;24.80;99.90;;;;;;4999572;28;20253;-88
2023/08/17 00:16:42;;;;;;;2.70;1.60;;;24.70;99.90;;;;;;5001519;28;20575;-87
2023/08/17 00:19:14;;;;;;;1.83;1.40;;;24.70;99.90;;;;;;5018508;28;20271;-88
2023/08/17 00:22:03;;;;;;;3.27;1.70;;;24.60;99.90;;;;;;4982017;28;20276;-88
2023/08/17 00:24:29;;;;;;;1.60;1.50;;;24.60;99.90;;;;;;4981362;28;20190;-88
2023/08/17 00:26:54;;;;;;;1.73;1.60;;;24.60;99.90;;;;;;5009090;28;20285;-88
2023/08/17 00:29:20;;;;;;;3.17;1.40;;;24.60;99.90;;;;;;5012920;28;20189;-88
2023/08/17 00:31:47;;;;;;;2.23;1.60;;;24.60;99.90;;;;;;5025601;28;20188;-88
2023/08/17 00:34:13;;;;;;;2.17;1.63;;;24.60;99.90;;;;;;5015492;28;20627;-88
2023/08/17 00:36:43;;;;;;;2.63;1.70;;;24.60;99.90;;;;;;5018720;28;20188;-88
2023/08/17 00:39:09;;;;;;;2.27;1.60;;;24.60;99.90;;;;;;5020028;28;20216;-88
2023/08/17 00:41:35;;;;;;;2.70;1.73;;;24.60;99.90;;;;;;5024697;28;20613;-88
2023/08/17 00:44:01;;;;;;;3.63;1.63;;;24.50;99.90;;;;;;5019751;28;20181;-88
2023/08/17 00:46:29;;;;;;;2.90;1.70;;;24.50;99.90;;;;;;5007576;28;20582;-87
2023/08/17 00:48:56;;;;;;;2.53;1.60;;;24.50;99.90;;;;;;5020590;28;20173;-88
2023/08/17 00:51:26;;;;;;;2.57;1.60;;;24.50;99.90;;;;;;5040339;28;20191;-88
2023/08/17 00:54:02;;;;;;;2.43;1.60;;;24.50;99.90;;;;;;5036317;28;20201;-88
2023/08/17 00:56:29;;;;;;;1.97;1.60;;;24.50;99.90;;;;;;5019125;28;20173;-88
2023/08/17 00:58:55;;;;;;;3.53;1.70;;;24.50;99.90;;;;;;5024767;28;20179;-88
2023/08/17 01:01:22;;;;;;;2.10;1.50;;;24.50;99.90;;;;;;5030537;28;20777;-88
2023/08/17 01:03:48;;;;;;;2.10;1.50;;;24.50;99.90;;;;;;5010979;28;20178;-88
2023/08/17 01:06:14;;;;;;;2.40;1.80;;;24.50;99.90;;;;;;5022903;28;20279;-88
2023/08/17 01:08:42;;;;;;;2.63;1.80;;;24.50;99.90;;;;;;5020069;28;20268;-87
2023/08/17 01:11:14;;;;;;;2.70;2.00;;;24.50;99.90;;;;;;5035961;28;20162;-88
2023/08/17 01:13:58;;;;;;;1.83;1.60;;;24.50;99.90;;;;;;5019449;28;20197;-88
2023/08/17 01:16:33;;;;;;;3.67;1.70;;;24.50;99.90;;;;;;5013213;28;20205;-88
2023/08/17 01:19:01;;;;;;;4.70;1.90;;;24.50;99.90;;;;;;5020353;28;20180;-88
2023/08/17 01:21:42;;;;;;;2.10;1.77;;;24.50;99.90;;;;;;5036290;28;20270;-88
2023/08/17 01:24:08;;;;;;;2.17;1.70;;;24.60;99.90;;;;;;5026823;28;20187;-89
2023/08/17 01:26:33;;;;;;;2.73;1.80;;;24.50;99.90;;;;;;5037269;28;20212;-89
2023/08/17 01:29:01;;;;;;;1.90;1.70;;;24.50;99.90;;;;;;5036608;28;20216;-89
2023/08/17 01:31:45;;;;;;;3.20;1.70;;;24.60;99.90;;;;;;5029088;28;20177;-88
2023/08/17 01:34:18;;;;;;;4.13;1.60;;;24.50;99.90;;;;;;5018900;28;20217;-88
2023/08/17 01:37:10;;;;;;;2.90;1.50;;;24.50;99.90;;;;;;5037637;28;20212;-88
2023/08/17 01:39:48;;;;;;;3.53;2.03;;;24.50;99.90;;;;;;5036668;28;20251;-89
2023/08/17 01:42:16;;;;;;;4.47;1.90;;;24.50;99.90;;;;;;5029205;28;20206;-89
2023/08/17 01:44:42;;;;;;;2.57;1.87;;;24.40;99.90;;;;;;5012214;28;20184;-88
2023/08/17 01:47:07;;;;;;;2.40;1.70;;;24.40;99.90;;;;;;5016891;28;20188;-89
2023/08/17 01:49:33;;;;;;;2.90;1.70;;;24.40;99.90;;;;;;5027367;28;20259;-88
2023/08/17 01:52:00;;;;;;;2.37;1.50;;;24.30;99.90;;;;;;5041152;28;20180;-88
2023/08/17 01:54:26;;;;;;;1.90;1.70;;;24.30;99.90;;;;;;5022097;28;20220;-88
2023/08/17 01:57:05;;;;;;;4.47;1.93;;;24.30;99.90;;;;;;5013650;28;20177;-88
2023/08/17 01:59:31;;;;;;;3.10;1.70;;;24.30;99.90;;;;;;5020149;28;20183;-88
2023/08/17 02:01:56;;;;;;;2.67;1.57;;;24.30;99.90;;;;;;5029165;28;20177;-88
2023/08/17 02:04:22;;;;;;;2.33;1.63;;;24.30;99.90;;;;;;5012063;28;20180;-88
2023/08/17 02:06:53;;;;;;;1.97;1.43;;;24.30;99.90;;;;;;5025273;28;20164;-88
2023/08/17 02:09:19;;;;;;;1.50;1.37;;;24.20;99.90;;;;;;5035585;28;20204;-88
2023/08/17 02:11:44;;;;;;;2.23;1.50;;;24.20;99.90;;;;;;5012738;28;20203;-88
2023/08/17 02:14:10;;;;;;;2.23;1.60;;;24.20;99.90;;;;;;5007432;28;20304;-88
2023/08/17 02:16:38;;;;;;;3.30;1.47;;;24.20;99.90;;;;;;5020157;28;20180;-88
2023/08/17 02:19:04;;;;;;;1.67;1.40;;;24.20;99.90;;;;;;5025591;28;20184;-87
2023/08/17 02:21:30;;;;;;;2.30;1.53;;;24.20;99.90;;;;;;5037467;28;20196;-87
2023/08/17 02:23:55;;;;;;;1.70;1.60;;;24.20;99.90;;;;;;5023692;28;20215;-88
2023/08/17 02:26:42;;;;;;;2.13;1.63;;;24.20;99.90;;;;;;5040959;28;20168;-88
2023/08/17 02:29:07;;;;;;;1.70;1.53;;;24.20;99.90;;;;;;5031739;28;20175;-88
2023/08/17 02:31:33;;;;;;;2.37;1.43;;;24.20;99.90;;;;;;5025783;28;20192;-88
2023/08/17 02:34:04;;;;;;;2.27;1.77;;;24.20;99.90;;;;;;5040981;28;20300;-88
2023/08/17 02:36:36;;;;;;;1.60;1.40;;;24.20;99.90;;;;;;5015354;28;20204;-88
2023/08/17 02:39:03;;;;;;;2.97;1.60;;;24.20;99.90;;;;;;5021574;28;20186;-88
2023/08/17 02:41:30;;;;;;;2.20;1.37;;;24.20;99.90;;;;;;5020762;28;20180;-88
2023/08/17 02:43:56;;;;;;;3.23;1.73;;;24.20;99.90;;;;;;5028191;28;20217;-88
2023/08/17 02:46:27;;;;;;;4.57;1.60;;;24.30;99.90;;;;;;5019403;28;20216;-88
2023/08/17 02:48:53;;;;;;;2.67;1.40;;;24.30;99.90;;;;;;5023735;28;20173;-88
2023/08/17 02:51:18;;;;;;;1.90;1.70;;;24.20;99.90;;;;;;5022990;28;20192;-88
2023/08/17 02:53:44;;;;;;;2.87;1.60;;;24.20;99.90;;;;;;5023349;28;20261;-88
2023/08/17 02:56:20;;;;;;;3.30;1.60;;;24.20;99.90;;;;;;5023556;28;20215;-88
2023/08/17 02:58:46;;;;;;;1.83;1.50;;;24.20;99.90;;;;;;5018433;28;20188;-88
2023/08/17 03:01:11;;;;;;;1.70;1.57;;;24.20;99.90;;;;;;5011445;28;20182;-88
2023/08/17 03:03:37;;;;;;;2.23;1.40;;;24.20;99.90;;;;;;5037745;28;20161;-88
2023/08/17 03:06:20;;;;;;;2.00;1.70;;;24.20;99.90;;;;;;5021144;28;20181;-88
2023/08/17 03:08:46;;;;;;;2.77;1.90;;;24.10;99.90;;;;;;5023123;28;20212;-88
2023/08/17 03:11:12;;;;;;;2.60;1.70;;;24.10;99.90;;;;;;5039107;28;20234;-87
2023/08/17 03:13:38;;;;;;;2.50;1.70;;;24.10;99.90;;;;;;5039035;28;20489;-88
2023/08/17 03:16:05;;;;;;;2.10;1.50;;;24.10;99.90;;;;;;5021827;28;20181;-88
2023/08/17 03:18:30;;;;;;;1.60;1.50;;;24.10;99.90;;;;;;5021872;28;20184;-88
2023/08/17 03:20:56;;;;;;;2.47;1.90;;;24.00;99.90;;;;;;5014968;28;20173;-88
2023/08/17 03:23:22;;;;;;;3.77;1.53;;;24.00;99.90;;;;;;5039184;28;20192;-88
2023/08/17 03:25:54;;;;;;;2.57;1.60;;;24.00;99.90;;;;;;5021533;28;20177;-88
2023/08/17 03:28:20;;;;;;;1.90;1.70;;;24.00;99.90;;;;;;5009662;28;20185;-88
2023/08/17 03:30:46;;;;;;;2.00;1.80;;;24.00;99.90;;;;;;5014634;28;20214;-88
2023/08/17 03:33:12;;;;;;;2.10;1.70;;;24.00;99.90;;;;;;5037633;28;20204;-88
2023/08/17 03:35:37;;;;;;;1.80;1.60;;;24.00;99.90;;;;;;5023819;28;20226;-88
2023/08/17 03:38:03;;;;;;;2.57;1.50;;;24.00;99.90;;;;;;5014566;28;20201;-88
2023/08/17 03:40:29;;;;;;;2.80;1.67;;;23.90;99.90;;;;;;5038416;28;20290;-88
2023/08/17 03:42:55;;;;;;;2.60;1.87;;;23.90;99.90;;;;;;5046444;28;20177;-87
2023/08/17 03:45:20;;;;;;;2.37;1.80;;;24.00;99.90;;;;;;5022322;28;20181;-88
2023/08/17 03:47:46;;;;;;;2.70;1.80;;;24.00;99.90;;;;;;5030972;28;20184;-87
2023/08/17 03:50:12;;;;;;;3.30;1.77;;;23.90;99.90;;;;;;5035035;28;20596;-88
2023/08/17 03:52:40;;;;;;;4.07;1.80;;;23.90;99.90;;;;;;5021613;28;20185;-88
2023/08/17 03:55:07;;;;;;;3.33;1.80;;;23.90;99.90;;;;;;5021695;28;20184;-87
2023/08/17 03:57:33;;;;;;;3.07;2.00;;;23.90;99.90;;;;;;5022158;28;20225;-87
2023/08/17 03:59:59;;;;;;;3.13;2.03;;;23.90;99.90;;;;;;5006960;28;20173;-87
2023/08/17 04:02:32;;;;;;;3.63;2.23;;;23.90;99.90;;;;;;5020698;28;20197;-87
2023/08/17 04:04:57;;;;;;;4.37;2.00;;;23.90;99.90;;;;;;5023485;28;20168;-87
2023/08/17 04:07:23;;;;;;;3.53;2.00;;;23.90;99.90;;;;;;5039299;28;20179;-87
2023/08/17 04:09:49;;;;;;;3.20;2.10;;;23.90;99.90;;;;;;5021214;28;20279;-88
2023/08/17 04:12:15;;;;;;;3.27;1.97;;;23.90;99.90;;;;;;5023909;28;20752;-88
2023/08/17 04:14:40;;;;;;;3.47;2.10;;;23.90;99.90;;;;;;5015770;28;20270;-88
2023/08/17 04:17:06;;;;;;;2.87;2.33;;;23.90;99.90;;;;;;5024579;28;20196;-88
2023/08/17 04:19:35;;;;;;;3.77;2.30;;;23.90;99.90;;;;;;5022203;28;20185;-88
2023/08/17 04:22:01;;;;;;;3.87;2.10;;;23.90;99.90;;;;;;5033121;28;20184;-87
2023/08/17 04:24:27;;;;;;;3.73;1.90;;;23.80;99.90;;;;;;5020634;28;20182;-88
2023/08/17 04:26:52;;;;;;;2.87;1.93;;;23.80;99.90;;;;;;5013816;28;20287;-88
2023/08/17 04:29:20;;;;;;;3.83;2.23;;;23.80;99.90;;;;;;5012613;28;20189;-88
2023/08/17 04:31:46;;;;;;;4.53;2.60;;;23.90;99.90;;;;;;5025317;28;20176;-87
2023/08/17 04:34:12;;;;;;;3.60;2.33;;;23.90;99.90;;;;;;5028657;28;20275;-88
2023/08/17 04:36:38;;;;;;;4.00;2.27;;;23.90;99.90;;;;;;5031434;28;20175;-88
2023/08/17 04:39:04;;;;;;;3.23;2.20;;;23.80;99.90;;;;;;5023162;28;20196;-88
2023/08/17 04:41:30;;;;;;;4.17;2.50;;;23.90;99.90;;;;;;5019965;28;20185;-88
2023/08/17 04:43:56;;;;;;;4.47;2.40;;;23.90;99.90;;;;;;5014912;28;20181;-88
2023/08/17 04:46:22;;;;;;;4.10;2.40;;;23.90;99.90;;;;;;5023829;28;20294;-87
2023/08/17 04:48:49;;;;;;;7.37;2.63;;;23.90;99.90;;;;;;5034389;28;20176;-87
2023/08/17 04:51:15;;;;;;;3.47;2.30;;;23.90;99.90;;;;;;5013645;28;20185;-87
2023/08/17 04:53:41;;;;;;;4.50;2.43;;;23.90;99.90;;;;;;5020605;28;20486;-87
2023/08/17 04:56:06;;;;;;;3.53;2.10;;;24.00;99.90;;;;;;5017477;28;20583;-87
2023/08/17 04:58:32;;;;;;;4.80;2.53;;;24.00;99.90;;;;;;5016260;28;20173;-87
2023/08/17 05:00:59;;;;;;;4.33;2.60;;;24.00;99.90;;;;;;5004745;28;20535;-88
2023/08/17 05:03:25;;;;;;;4.73;2.87;;;24.10;99.90;;;;;;5003195;28;20478;-88
2023/08/17 05:05:53;;;;;;;5.50;2.60;;;24.00;99.90;;;;;;5003133;28;20195;-88
2023/08/17 05:08:21;;;;;;;4.50;2.40;;;24.00;99.90;;;;;;5016317;28;20342;-87
2023/08/17 05:10:47;;;;;;;4.57;2.40;;;24.00;99.90;;;;;;5001467;28;20557;-88
2023/08/17 05:13:12;;;;;;;4.40;2.50;;;24.10;99.90;;;;;;5001203;28;20312;-88
2023/08/17 05:15:38;;;;;;;6.37;2.63;;;24.10;99.90;;;;;;5002383;28;20246;-88
2023/08/17 05:18:05;;;;;;;3.87;2.67;;;24.10;99.90;;;;;;5000962;28;20491;-88
2023/08/17 05:20:30;;;;;;;4.33;2.33;;;24.10;99.90;;;;;;5000470;28;20697;-88
2023/08/17 05:22:56;;;;;;;5.50;2.63;;;24.10;99.90;;;;;;5019329;28;20192;-88
2023/08/17 05:25:22;;;;;;;5.63;2.50;;;24.00;99.90;;;;;;4998236;28;20370;-88
2023/08/17 05:27:49;;;;;;;5.53;2.80;;;24.10;99.90;;;;;;5019196;28;20238;-88
2023/08/17 05:30:16;;;;;;;4.83;3.03;;;24.10;99.90;;;;;;4997824;28;20181;-88
2023/08/17 05:32:41;;;;;;;4.87;2.87;;;24.00;99.90;;;;;;5000869;28;20208;-88
2023/08/17 05:35:07;;;;;;;3.70;2.50;;;24.00;99.90;;;;;;5015132;28;20572;-88
2023/08/17 05:37:33;;;;;;;6.20;2.80;;;24.00;99.90;;;;;;5000880;28;20192;-88
2023/08/17 05:39:59;;;;;;;3.73;2.40;;;24.00;99.90;;;;;;4996758;28;20185;-88
2023/08/17 05:42:25;;;;;;;3.83;2.40;;;24.00;99.90;;;;;;4999642;28;20276;-88
2023/08/17 05:44:50;;;;;;;4.47;2.70;;;24.00;99.90;;;;;;5014722;28;20188;-87
2023/08/17 05:47:18;;;;;;;4.33;2.60;;;24.00;99.90;;;;;;4995144;28;20335;-88
2023/08/17 05:49:44;;;;;;;4.00;2.40;;;24.00;99.90;;;;;;4996714;28;20182;-88
2023/08/17 05:52:10;;;;;;;4.97;2.60;;;24.00;99.90;;;;;;4998447;28;20565;-87
2023/08/17 05:54:36;;;;;;;4.00;2.90;;;24.00;99.90;;;;;;5013685;28;20197;-88
2023/08/17 05:57:03;;;;;;;4.00;2.53;;;24.00;99.80;;;;;;4998817;28;20397;-88
2023/08/17 05:59:28;;;;;;;3.70;2.60;;;24.00;99.80;;;;;;5014976;28;20259;-88
2023/08/17 06:01:54;;;;;;;3.60;2.60;;;24.00;99.80;;;;;;5005206;28;20390;-88
2023/08/17 06:04:20;;;;;;;3.70;2.20;;;24.00;99.90;;;;;;4996984;28;20611;-87
2023/08/17 06:06:46;;;;;;;3.80;2.80;;;24.00;99.90;;;;;;4999921;28;20196;-88
2023/08/17 06:09:12;;;;;;;3.50;2.50;;;23.90;99.90;;;;;;4995932;28;20182;-88
2023/08/17 06:11:38;;;;;;;4.77;2.60;;;23.80;99.90;;;;;;5003419;28;20444;-87
2023/08/17 06:14:04;;;;;;;3.50;2.60;;;23.90;99.90;;;;;;4997611;28;20484;-87
2023/08/17 06:16:30;;;;;;;4.20;2.50;;;23.80;99.90;;;;;;5015679;28;20181;-87
2023/08/17 06:18:56;;;;;;;5.37;2.60;;;23.80;99.90;;;;;;5008248;28;20173;-87
2023/08/17 06:21:21;;;;;;;3.40;2.50;;;23.80;99.90;;;;;;4993115;28;20280;-88
2023/08/17 06:23:47;;;;;;;5.90;2.60;;;23.70;99.90;;;;;;5011675;28;20558;-88
2023/08/17 06:26:13;;;;;;;3.67;2.50;;;23.70;99.90;;;;;;4994833;28;20185;-88
2023/08/17 06:28:39;;;;;;;4.20;3.10;;;23.70;99.90;;;;;;4993421;28;20541;-87
2023/08/17 06:31:05;;;;;;;3.77;2.40;;;23.70;99.90;;;;;;5011784;28;20300;-85
2023/08/17 06:33:31;;;;;;;3.70;2.43;;;23.70;99.90;;;;;;4993417;28;20251;-85
2023/08/17 06:35:56;;;;;;;5.50;2.40;;;23.80;99.90;;;;;;4993029;28;20579;-85
2023/08/17 06:38:22;;;;;;;5.00;2.40;;;23.80;99.90;;;;;;5013031;28;20184;-85
2023/08/17 06:40:48;;;;;;;6.00;2.50;;;23.70;99.90;;;;;;4991763;28;20185;-85
2023/08/17 06:43:14;;;;;;;4.37;2.80;;;23.70;99.90;;;;;;4993097;28;20181;-85
2023/08/17 06:45:39;;;;;;;4.60;2.30;;;23.70;99.90;;;;;;4994094;28;20212;-85
2023/08/17 06:48:06;;;;;;;4.00;2.40;;;23.70;99.90;;;;;;4992868;28;20184;-85
2023/08/17 06:50:31;;;;;;;6.23;2.83;;;23.70;99.90;;;;;;4996098;28;20184;-84
2023/08/17 06:52:57;;;;;;;4.43;2.50;;;23.70;99.90;;;;;;4998734;28;20217;-85
2023/08/17 06:55:23;;;;;;;5.10;2.50;;;23.70;99.90;;;;;;4990885;28;20780;-85
2023/08/17 06:57:51;;;;;;;3.67;2.50;;;23.70;99.90;;;;;;5011517;28;20185;-85
2023/08/17 07:00:20;;;;;;;5.23;2.70;;;23.70;99.90;;;;;;4991880;28;20185;-85
2023/08/17 07:02:47;;;;;;;4.40;2.60;;;23.70;99.90;;;;;;5014236;28;20365;-85
2023/08/17 07:05:15;;;;;;;4.40;2.50;;;23.70;99.90;;;;;;4991765;28;20186;-85
2023/08/17 07:07:42;;;;;;;3.73;2.50;;;23.60;99.90;;;;;;4995206;28;20223;-85
2023/08/17 07:10:09;;;;;;;3.07;2.43;;;23.70;99.90;;;;;;5013551;28;20213;-85
2023/08/17 07:12:34;;;;;;;3.37;2.80;;;23.70;99.90;;;;;;5005684;28;20328;-85
2023/08/17 07:15:00;;;;;;;2.87;2.30;;;23.70;99.90;;;;;;4997603;28;20177;-85
2023/08/17 07:17:26;;;;;;;2.80;2.07;;;23.70;99.90;;;;;;4996685;28;20241;-85
2023/08/17 07:19:51;;;;;;;3.50;2.30;;;23.70;99.90;;;;;;4999255;28;20454;-85
2023/08/17 07:22:17;;;;;;;4.20;2.70;;;23.70;99.90;;;;;;5000360;28;20417;-85
2023/08/17 07:24:43;;;;;;;2.60;2.40;;;23.70;99.90;;;;;;5008846;28;20215;-85
2023/08/17 07:27:09;;;;;;;2.97;2.40;;;23.60;99.90;;;;;;5000562;28;20181;-85
2023/08/17 07:29:35;;;;;;;2.60;2.40;;;23.60;99.90;;;;;;5000021;28;20423;-85
2023/08/17 07:32:02;;;;;;;2.93;2.50;;;23.60;99.90;;;;;;5018768;28;20239;-85
2023/08/17 07:34:30;;;;;;;3.07;2.47;;;23.60;99.90;;;;;;4999087;28;20459;-85
2023/08/17 07:36:56;;;;;;;2.47;2.27;;;23.60;99.90;;;;;;5009461;28;20459;-85
2023/08/17 07:39:21;;;;;;;2.47;2.23;;;23.60;99.90;;;;;;5004502;28;20177;-85
2023/08/17 07:41:47;;;;;;;3.20;2.33;;;23.70;99.90;;;;;;5018167;28;20206;-85
2023/08/17 07:44:13;;;;;;;2.50;2.20;;;23.60;99.90;;;;;;5003831;28;20192;-84
2023/08/17 07:46:39;;;;;;;4.00;2.47;;;23.60;99.90;;;;;;5001607;28;20562;-85
2023/08/17 07:49:05;;;;;;;3.37;2.20;;;23.60;99.90;;;;;;4998894;28;20193;-85
2023/08/17 07:51:33;;;;;;;3.20;2.13;;;23.60;99.90;;;;;;4998940;28;20181;-84
2023/08/17 07:54:00;;;;;;;2.80;2.50;;;23.60;99.90;;;;;;5017350;28;20748;-85
2023/08/17 07:56:25;;;;;;;2.40;2.20;;;23.60;99.90;;;;;;4999157;28;20460;-85
2023/08/17 07:58:54;;;;;;;2.40;2.07;;;23.60;99.90;;;;;;5004634;28;20422;-84
2023/08/17 08:01:19;;;;;;;4.13;2.20;;;23.60;99.90;;;;;;4999140;28;20352;-85
2023/08/17 08:03:46;;;;;;;2.93;2.23;;;23.60;99.90;;;;;;4997183;28;20216;-85
2023/08/17 08:06:12;;;;;;;3.10;2.60;;;23.60;99.90;;;;;;5003501;28;20279;-85
2023/08/17 08:08:39;;;;;;;2.97;2.33;;;23.70;99.90;;;;;;5001113;28;20300;-85
2023/08/17 08:11:05;;;;;;;4.47;2.20;;;23.70;99.90;;;;;;5010899;28;20185;-84
2023/08/17 08:13:31;;;;;;;2.63;2.37;;;23.70;99.90;;;;;;5015969;28;20212;-84
2023/08/17 08:15:59;;;;;;;2.30;2.03;;;23.70;99.90;;;;;;5001299;28;20180;-85
2023/08/17 08:18:25;;;;;;;3.50;2.47;;;23.80;99.90;;;;;;5015700;28;20471;-85
2023/08/17 08:20:51;;;;;;;3.00;2.17;;;23.70;99.90;;;;;;5002102;28;20253;-85
2023/08/17 08:23:17;;;;;;;2.30;2.10;;;23.80;99.90;;;;;;5018623;28;20268;-85
2023/08/17 08:25:43;;;;;;;2.57;2.30;;;23.80;99.90;;;;;;5002318;28;20192;-85
2023/08/17 08:28:09;;;;;;;2.40;2.20;;;23.70;99.90;;;;;;5000993;28;20228;-85
2023/08/17 08:30:35;;;;;;;3.47;2.30;;;23.70;99.90;;;;;;5003079;28;20460;-85
2023/08/17 08:33:01;;;;;;;3.53;2.30;;;23.70;99.90;;;;;;4999025;28;20734;-85
2023/08/17 08:35:28;;;;;;;3.13;1.90;;;23.70;99.90;;;;;;5020041;28;20462;-85
2023/08/17 08:37:55;;;;;;;2.93;2.07;;;23.70;99.90;;;;;;5020396;28;20184;-85
2023/08/17 08:40:29;;;;;;;2.90;2.37;;;23.80;99.90;;;;;;4999580;28;20242;-85
2023/08/17 08:42:57;;;;;;;2.50;2.13;;;23.70;99.90;;;;;;5016506;28;20220;-85
2023/08/17 08:45:23;;;;;;;2.60;2.03;;;23.70;99.90;;;;;;4999805;28;20362;-84
2023/08/17 08:47:50;;;;;;;3.33;2.30;;;23.70;99.90;;;;;;5001648;28;20516;-85
2023/08/17 08:50:22;;;;;;;2.47;2.20;;;23.70;99.90;;;;;;5002958;28;20208;-85
2023/08/17 08:52:59;;;;;;;2.73;2.10;;;23.70;99.90;;;;;;5001671;28;20336;-85
2023/08/17 08:55:30;;;;;;;2.43;2.10;;;23.70;99.90;;;;;;5017731;28;20256;-85
2023/08/17 08:57:56;;;;;;;3.03;2.33;;;23.70;99.90;;;;;;4998394;28;20207;-85
2023/08/17 09:00:22;;;;;;;2.40;2.20;;;23.70;99.90;;;;;;5014328;28;20178;-85
2023/08/17 09:02:49;;;;;;;3.07;2.13;;;23.60;99.90;;;;;;5004405;28;20181;-85
2023/08/17 09:05:16;;;;;;;2.80;2.40;;;23.70;99.90;;;;;;5016918;28;20473;-85
2023/08/17 09:07:42;;;;;;;2.40;2.10;;;23.70;99.90;;;;;;4996978;28;20391;-85
2023/08/17 09:10:09;;;;;;;3.90;2.30;;;23.70;99.90;;;;;;4998315;28;20468;-85
2023/08/17 09:12:35;;;;;;;3.33;2.33;;;23.70;99.90;;;;;;4997989;28;20273;-85
2023/08/17 09:15:01;;;;;;;3.17;2.60;;;23.70;99.90;;;;;;5015830;28;20624;-85
2023/08/17 09:17:28;;;;;;;2.27;2.07;;;23.70;99.90;;;;;;4997871;28;20186;-85
2023/08/17 09:19:54;;;;;;;2.47;2.27;;;23.70;99.90;;;;;;5000455;28;20196;-85
2023/08/17 09:22:41;;;;;;;2.70;2.13;;;23.60;99.90;;;;;;5013458;28;20479;-85
2023/08/17 09:25:08;;;;;;;2.60;2.40;;;23.60;99.90;;;;;;5005122;28;20181;-85
2023/08/17 09:27:33;;;;;;;3.20;2.40;;;23.60;99.90;;;;;;5013207;28;20182;-85
2023/08/17 09:30:10;;;;;;;2.50;2.30;;;23.60;99.90;;;;;;4994305;28;20355;-85
2023/08/17 09:32:36;;;;;;;2.90;2.30;;;23.60;99.90;;;;;;4995646;28;20698;-85
2023/08/17 09:35:06;;;;;;;2.93;2.40;;;23.60;99.90;;;;;;4999399;28;20443;-85
2023/08/17 09:37:32;;;;;;;3.63;2.63;;;23.60;99.90;;;;;;5011942;28;20212;-85
2023/08/17 09:39:59;;;;;;;2.80;2.50;;;23.60;99.90;;;;;;4997723;28;20279;-85
2023/08/17 09:42:25;;;;;;;5.13;2.50;;;23.70;99.90;;;;;;5014619;28;20185;-85
2023/08/17 09:44:55;;;;;;;3.90;2.30;;;23.60;99.90;;;;;;4996422;28;20647;-85
2023/08/17 09:47:22;;;;;;;3.13;2.70;;;23.60;99.90;;;;;;4998564;28;20176;-85
2023/08/17 09:49:54;;;;;;;2.77;2.30;;;23.70;99.90;;;;;;5016896;28;20208;-85
2023/08/17 09:52:23;;;;;;;3.17;2.60;;;23.70;99.90;;;;;;5002645;28;20218;-84
2023/08/17 09:54:52;;;;;;;2.63;2.30;;;23.70;99.90;;;;;;5008208;28;20232;-85
2023/08/17 09:57:17;;;;;;;2.87;2.50;;;23.70;99.90;;;;;;4997855;28;20433;-85
2023/08/17 09:59:43;;;;;;;2.83;2.47;;;23.70;99.90;;;;;;5015659;28;20259;-84
2023/08/17 10:02:19;;;;;;;2.63;2.17;;;23.70;99.90;;;;;;5004034;28;20212;-84
2023/08/17 10:04:50;;;;;;;2.57;2.10;;;23.70;99.90;;;;;;5003349;28;20212;-84
2023/08/17 10:07:21;;;;;;;2.87;2.60;;;23.70;99.90;;;;;;5015048;28;20169;-85
2023/08/17 10:10:05;;;;;;;2.87;2.60;;;23.70;99.90;;;;;;5013095;28;20455;-84
2023/08/17 10:12:46;;;;;;;2.83;2.57;;;23.70;99.90;;;;;;4995409;28;20196;-84
2023/08/17 10:15:15;;;;;;;3.47;2.40;;;23.80;99.90;;;;;;5008448;28;20204;-84
2023/08/17 10:17:58;;;;;;;2.40;2.20;;;23.80;99.90;;;;;;5030043;28;20574;-84
2023/08/17 10:20:26;;;;;;;2.70;2.50;;;23.80;99.90;;;;;;5016227;28;20249;-84
2023/08/17 10:23:06;;;;;;;2.80;2.50;;;23.90;99.90;;;;;;5006468;28;20208;-84
2023/08/17 10:25:33;;;;;;;2.43;2.23;;;23.90;99.90;;;;;;5002457;28;20650;-84
2023/08/17 10:28:03;;;;;;;2.73;2.33;;;23.80;99.90;;;;;;5004458;28;20208;-84
2023/08/17 10:30:29;;;;;;;3.00;2.50;;;23.80;99.90;;;;;;4994610;28;20687;-86
2023/08/17 10:32:55;;;;;;;3.30;2.53;;;23.90;99.90;;;;;;4993198;28;20426;-86
2023/08/17 10:35:27;;;;;;;2.50;2.30;;;23.90;99.90;;;;;;4992652;28;20184;-86
2023/08/17 10:37:54;;;;;;;2.43;2.23;;;23.90;99.90;;;;;;5016551;28;20181;-86
2023/08/17 10:40:34;;;;;;;2.70;2.27;;;23.90;99.90;;;;;;4996098;28;20180;-86
2023/08/17 10:43:00;;;;;;;3.10;2.40;;;24.00;99.90;;;;;;4997994;28;20434;-86
2023/08/17 10:45:30;;;;;;;2.70;2.40;;;24.00;99.90;;;;;;5000552;28;20377;-86
2023/08/17 10:48:08;;;;;;;2.93;2.53;;;24.00;99.90;;;;;;5008184;28;20177;-86
2023/08/17 10:50:38;;;;;;;2.67;2.40;;;24.00;99.90;;;;;;5008629;28;20176;-86
2023/08/17 10:53:12;;;;;;;2.93;2.53;;;24.10;99.90;;;;;;5020088;28;20220;-86
2023/08/17 10:55:52;;;;;;;2.73;2.53;;;24.10;99.90;;;;;;4998437;28;20312;-86
2023/08/17 10:58:21;;;;;;;2.90;2.60;;;24.10;99.80;;;;;;5016985;28;20488;-86
2023/08/17 11:00:48;;;;;;;3.10;2.53;;;24.20;99.80;;;;;;5014041;28;20431;-85
2023/08/17 11:03:27;;;;;;;2.70;2.50;;;24.20;99.80;;;;;;5018232;28;20211;-85
2023/08/17 11:05:58;;;;;;;2.93;2.63;;;24.20;99.70;;;;;;5001772;28;20195;-86
2023/08/17 11:08:27;;;;;;;2.30;2.10;;;24.20;99.70;;;;;;5000016;28;20420;-86
2023/08/17 11:11:06;;;;;;;2.80;2.40;;;24.10;99.70;;;;;;4996769;28;20268;-86
2023/08/17 11:13:35;;;;;;;2.57;2.37;;;24.20;99.70;;;;;;5005651;28;20322;-85
2023/08/17 11:16:06;;;;;;;2.43;2.23;;;24.20;99.60;;;;;;5021385;28;20500;-86
2023/08/17 11:18:32;;;;;;;3.50;2.53;;;24.20;99.60;;;;;;5015193;28;20177;-86
2023/08/17 11:20:58;;;;;;;2.83;2.53;;;24.30;99.60;;;;;;5010235;28;20266;-85
2023/08/17 11:23:28;;;;;;;2.97;2.60;;;24.30;99.50;;;;;;5008975;28;20192;-85
2023/08/17 11:25:53;;;;;;;3.37;2.40;;;24.30;99.50;;;;;;4997906;28;20180;-85
2023/08/17 11:28:19;;;;;;;2.77;2.37;;;24.30;99.40;;;;;;4998203;28;20261;-85
2023/08/17 11:30:45;;;;;;;2.30;2.10;;;24.30;99.30;;;;;;4999206;28;20200;-85
2023/08/17 11:33:11;;;;;;;2.60;2.40;;;24.40;99.30;;;;;;5014833;28;20205;-85
2023/08/17 11:35:37;;;;;;;2.50;2.30;;;24.40;99.30;;;;;;5016401;28;20219;-85
2023/08/17 11:38:05;;;;;;;2.97;2.43;;;24.40;99.20;;;;;;5000203;28;20188;-85
2023/08/17 11:40:32;;;;;;;2.83;2.43;;;24.40;99.20;;;;;;5001182;28;20556;-85
2023/08/17 11:42:58;;;;;;;2.60;2.40;;;24.50;99.10;;;;;;5010336;28;20177;-85
2023/08/17 11:45:24;;;;;;;2.67;2.30;;;24.50;99.10;;;;;;5007630;28;20571;-85
2023/08/17 11:47:51;;;;;;;2.67;2.40;;;24.50;99.00;;;;;;5019259;28;20176;-84
2023/08/17 11:50:18;;;;;;;2.83;2.50;;;24.60;99.00;;;;;;5015295;28;20208;-86
2023/08/17 11:52:43;;;;;;;2.53;2.33;;;24.60;98.90;;;;;;5001669;28;20426;-85
2023/08/17 11:55:12;;;;;;;2.37;2.17;;;24.60;98.90;;;;;;5013595;28;20307;-85
2023/08/17 11:57:38;;;;;;;2.50;2.10;;;24.60;98.90;;;;;;4996401;28;20408;-85
2023/08/17 12:00:12;;;;;;;2.70;2.50;;;24.60;98.90;;;;;;4998782;28;20185;-84
2023/08/17 12:02:42;;;;;;;3.40;2.30;;;24.60;98.80;;;;;;5015609;28;20738;-84
2023/08/17 12:05:09;;;;;;;2.47;2.27;;;24.60;98.80;;;;;;4998035;28;20229;-84
2023/08/17 12:07:35;;;;;;;2.30;2.10;;;24.70;98.80;;;;;;5001741;28;20441;-85
2023/08/17 12:10:04;;;;;;;2.40;2.20;;;24.60;98.70;;;;;;4999608;28;20447;-85
2023/08/17 12:12:30;;;;;;;3.20;2.40;;;24.70;98.70;;;;;;4999186;28;20473;-85
2023/08/17 12:14:57;;;;;;;2.50;2.30;;;24.70;98.70;;;;;;5015253;28;20221;-85
2023/08/17 12:17:24;;;;;;;2.73;2.30;;;24.70;98.60;;;;;;5000422;28;20272;-85
2023/08/17 12:19:54;;;;;;;2.50;2.30;;;24.70;98.60;;;;;;5013573;28;20466;-85
2023/08/17 12:22:24;;;;;;;2.27;2.07;;;24.70;98.60;;;;;;4995251;28;20268;-85
2023/08/17 12:24:50;;;;;;;2.40;2.20;;;24.70;98.60;;;;;;4994130;28;20192;-85
2023/08/17 12:27:16;;;;;;;3.17;2.30;;;24.80;98.60;;;;;;4998003;28;20184;-85
2023/08/17 12:29:48;;;;;;;2.23;2.03;;;24.70;98.50;;;;;;4997012;28;20216;-85
2023/08/17 12:32:15;;;;;;;2.53;2.00;;;24.70;98.60;;;;;;4996507;28;20347;-85
2023/08/17 12:34:42;;;;;;;2.53;2.33;;;24.70;98.50;;;;;;5011716;28;20433;-85
2023/08/17 12:37:12;;;;;;;2.10;1.90;;;24.70;98.50;;;;;;4998149;28;20526;-85
2023/08/17 12:39:38;;;;;;;2.57;2.37;;;24.80;98.60;;;;;;5011688;28;20466;-85
2023/08/17 12:42:05;;;;;;;3.47;2.20;;;24.80;98.60;;;;;;4991325;28;20181;-85
2023/08/17 12:44:30;;;;;;;2.20;2.10;;;24.80;98.60;;;;;;5016529;28;20283;-85
2023/08/17 12:46:56;;;;;;;2.50;2.30;;;24.80;98.60;;;;;;5012376;28;20268;-85
2023/08/17 12:49:25;;;;;;;2.43;2.17;;;24.80;98.60;;;;;;4998175;28;20190;-85
2023/08/17 12:51:51;;;;;;;2.83;2.37;;;24.70;98.60;;;;;;5014013;28;20180;-85